sensor_id;sensor_type;location;lat;lon;timestamp;temperature;humidity
32293;DHT22;43233;48.608;8.838;2023-04-25T00:01:36;7.40;76.40
32293;DHT22;43233;48.608;8.838;2023-04-25T00:04:03;7.40;76.60
32293;DHT22;43233;48.608;8.838;2023-04-25T00:06:31;7.40;76.90
32293;DHT22;43233;48.608;8.838;2023-04-25T00:08:57;7.40;76.60
32293;DHT22;43233;48.608;8.838;2023-04-25T00:11:23;7.40;76.80
32293;DHT22;43233;48.608;8.838;2023-04-25T00:13:49;7.40;76.60
32293;DHT22;43233;48.608;8.838;2023-04-25T00:16:19;7.40;76.50
32293;DHT22;43233;48.608;8.838;2023-04-25T00:18:45;7.30;76.60
32293;DHT22;43233;48.608;8.838;2023-04-25T00:21:17;7.20;77.90
32293;DHT22;43233;48.608;8.838;2023-04-25T00:23:43;7.10;78.70
32293;DHT22;43233;48.608;8.838;2023-04-25T00:26:11;7.10;78.80
32293;DHT22;43233;48.608;8.838;2023-04-25T00:28:37;7.10;78.10
32293;DHT22;43233;48.608;8.838;2023-04-25T00:31:03;7.00;77.60
32293;DHT22;43233;48.608;8.838;2023-04-25T00:33:29;7.00;77.40
32293;DHT22;43233;48.608;8.838;2023-04-25T00:35:55;7.00;77.40
32293;DHT22;43233;48.608;8.838;2023-04-25T00:38:21;6.90;77.30
32293;DHT22;43233;48.608;8.838;2023-04-25T00:40:47;6.90;77.30
32293;DHT22;43233;48.608;8.838;2023-04-25T00:43:12;6.90;77.30
32293;DHT22;43233;48.608;8.838;2023-04-25T00:45:39;6.90;77.00
32293;DHT22;43233;48.608;8.838;2023-04-25T00:48:05;6.90;77.20
32293;DHT22;43233;48.608;8.838;2023-04-25T00:50:33;6.90;76.40
32293;DHT22;43233;48.608;8.838;2023-04-25T00:52:59;6.90;76.20
32293;DHT22;43233;48.608;8.838;2023-04-25T00:55:25;6.90;76.40
32293;DHT22;43233;48.608;8.838;2023-04-25T00:57:51;7.00;76.60
32293;DHT22;43233;48.608;8.838;2023-04-25T01:00:17;7.00;77.20
32293;DHT22;43233;48.608;8.838;2023-04-25T01:02:43;7.10;77.40
32293;DHT22;43233;48.608;8.838;2023-04-25T01:05:10;7.00;77.30
32293;DHT22;43233;48.608;8.838;2023-04-25T01:07:37;7.00;77.50
32293;DHT22;43233;48.608;8.838;2023-04-25T01:10:04;7.10;78.20
32293;DHT22;43233;48.608;8.838;2023-04-25T01:12:30;7.00;78.20
32293;DHT22;43233;48.608;8.838;2023-04-25T01:14:56;7.00;77.70
32293;DHT22;43233;48.608;8.838;2023-04-25T01:17:22;7.00;76.80
32293;DHT22;43233;48.608;8.838;2023-04-25T01:19:47;6.90;76.20
32293;DHT22;43233;48.608;8.838;2023-04-25T01:22:14;6.90;76.60
32293;DHT22;43233;48.608;8.838;2023-04-25T01:24:41;6.90;77.00
32293;DHT22;43233;48.608;8.838;2023-04-25T01:27:07;6.90;77.40
32293;DHT22;43233;48.608;8.838;2023-04-25T01:29:33;6.90;78.00
32293;DHT22;43233;48.608;8.838;2023-04-25T01:32:00;6.80;78.30
32293;DHT22;43233;48.608;8.838;2023-04-25T01:34:26;6.80;78.60
32293;DHT22;43233;48.608;8.838;2023-04-25T01:36:53;6.80;77.40
32293;DHT22;43233;48.608;8.838;2023-04-25T01:39:19;6.80;77.20
32293;DHT22;43233;48.608;8.838;2023-04-25T01:41:48;6.80;74.30
32293;DHT22;43233;48.608;8.838;2023-04-25T01:44:15;6.80;75.50
32293;DHT22;43233;48.608;8.838;2023-04-25T01:46:41;6.80;76.40
32293;DHT22;43233;48.608;8.838;2023-04-25T01:49:07;6.90;75.10
32293;DHT22;43233;48.608;8.838;2023-04-25T01:51:33;7.00;74.40
32293;DHT22;43233;48.608;8.838;2023-04-25T01:53:59;7.00;75.00
32293;DHT22;43233;48.608;8.838;2023-04-25T01:56:25;6.90;75.10
32293;DHT22;43233;48.608;8.838;2023-04-25T01:58:51;6.90;74.90
32293;DHT22;43233;48.608;8.838;2023-04-25T02:01:16;7.00;75.30
32293;DHT22;43233;48.608;8.838;2023-04-25T02:03:43;7.00;75.10
32293;DHT22;43233;48.608;8.838;2023-04-25T02:06:09;7.00;74.90
32293;DHT22;43233;48.608;8.838;2023-04-25T02:08:34;7.00;74.80
32293;DHT22;43233;48.608;8.838;2023-04-25T02:11:02;7.00;74.70
32293;DHT22;43233;48.608;8.838;2023-04-25T02:13:28;7.10;74.70
32293;DHT22;43233;48.608;8.838;2023-04-25T02:15:54;7.10;74.90
32293;DHT22;43233;48.608;8.838;2023-04-25T02:18:19;7.10;74.80
32293;DHT22;43233;48.608;8.838;2023-04-25T02:20:46;7.10;75.40
32293;DHT22;43233;48.608;8.838;2023-04-25T02:23:12;7.00;75.50
32293;DHT22;43233;48.608;8.838;2023-04-25T02:25:38;6.90;75.50
32293;DHT22;43233;48.608;8.838;2023-04-25T02:28:03;6.90;76.50
32293;DHT22;43233;48.608;8.838;2023-04-25T02:30:29;6.80;76.60
32293;DHT22;43233;48.608;8.838;2023-04-25T02:32:55;6.80;76.40
32293;DHT22;43233;48.608;8.838;2023-04-25T02:35:20;6.80;76.60
32293;DHT22;43233;48.608;8.838;2023-04-25T02:37:46;6.70;76.70
32293;DHT22;43233;48.608;8.838;2023-04-25T02:40:12;6.80;76.60
32293;DHT22;43233;48.608;8.838;2023-04-25T02:42:37;6.80;76.50
32293;DHT22;43233;48.608;8.838;2023-04-25T02:45:03;6.80;76.50
32293;DHT22;43233;48.608;8.838;2023-04-25T02:47:29;6.80;76.00
32293;DHT22;43233;48.608;8.838;2023-04-25T02:49:55;6.80;76.60
32293;DHT22;43233;48.608;8.838;2023-04-25T02:52:21;6.80;76.70
32293;DHT22;43233;48.608;8.838;2023-04-25T02:54:47;6.80;76.70
32293;DHT22;43233;48.608;8.838;2023-04-25T02:57:12;6.80;76.90
32293;DHT22;43233;48.608;8.838;2023-04-25T02:59:38;6.80;77.00
32293;DHT22;43233;48.608;8.838;2023-04-25T03:02:04;6.80;77.00
32293;DHT22;43233;48.608;8.838;2023-04-25T03:04:29;6.70;76.90
32293;DHT22;43233;48.608;8.838;2023-04-25T03:06:55;6.70;77.00
32293;DHT22;43233;48.608;8.838;2023-04-25T03:09:21;6.80;76.90
32293;DHT22;43233;48.608;8.838;2023-04-25T03:11:46;6.70;77.00
32293;DHT22;43233;48.608;8.838;2023-04-25T03:14:13;6.70;77.30
32293;DHT22;43233;48.608;8.838;2023-04-25T03:16:38;6.80;77.20
32293;DHT22;43233;48.608;8.838;2023-04-25T03:19:05;6.80;77.20
32293;DHT22;43233;48.608;8.838;2023-04-25T03:21:32;6.70;77.50
32293;DHT22;43233;48.608;8.838;2023-04-25T03:23:59;6.80;77.90
32293;DHT22;43233;48.608;8.838;2023-04-25T03:26:24;6.80;77.90
32293;DHT22;43233;48.608;8.838;2023-04-25T03:28:50;6.80;77.80
32293;DHT22;43233;48.608;8.838;2023-04-25T03:31:16;6.70;77.60
32293;DHT22;43233;48.608;8.838;2023-04-25T03:33:42;6.70;77.70
32293;DHT22;43233;48.608;8.838;2023-04-25T03:36:08;6.80;77.90
32293;DHT22;43233;48.608;8.838;2023-04-25T03:38:34;6.70;77.60
32293;DHT22;43233;48.608;8.838;2023-04-25T03:41:00;6.70;77.80
32293;DHT22;43233;48.608;8.838;2023-04-25T03:43:26;6.70;77.80
32293;DHT22;43233;48.608;8.838;2023-04-25T03:45:51;6.60;78.10
32293;DHT22;43233;48.608;8.838;2023-04-25T03:48:17;6.50;78.50
32293;DHT22;43233;48.608;8.838;2023-04-25T03:50:42;6.50;78.80
32293;DHT22;43233;48.608;8.838;2023-04-25T03:53:08;6.40;79.00
32293;DHT22;43233;48.608;8.838;2023-04-25T03:55:34;6.30;79.40
32293;DHT22;43233;48.608;8.838;2023-04-25T03:58:00;6.30;79.60
32293;DHT22;43233;48.608;8.838;2023-04-25T04:00:25;6.30;79.30
32293;DHT22;43233;48.608;8.838;2023-04-25T04:02:51;6.30;79.30
32293;DHT22;43233;48.608;8.838;2023-04-25T04:05:17;6.20;79.40
32293;DHT22;43233;48.608;8.838;2023-04-25T04:07:43;6.20;80.10
32293;DHT22;43233;48.608;8.838;2023-04-25T04:10:11;6.10;80.50
32293;DHT22;43233;48.608;8.838;2023-04-25T04:12:37;6.10;80.70
32293;DHT22;43233;48.608;8.838;2023-04-25T04:15:07;6.00;80.70
32293;DHT22;43233;48.608;8.838;2023-04-25T04:17:33;6.00;80.40
32293;DHT22;43233;48.608;8.838;2023-04-25T04:19:59;5.90;80.50
32293;DHT22;43233;48.608;8.838;2023-04-25T04:22:25;5.90;80.20
32293;DHT22;43233;48.608;8.838;2023-04-25T04:24:51;5.90;80.40
32293;DHT22;43233;48.608;8.838;2023-04-25T04:27:18;5.90;80.40
32293;DHT22;43233;48.608;8.838;2023-04-25T04:29:45;5.90;80.60
32293;DHT22;43233;48.608;8.838;2023-04-25T04:32:12;5.90;80.70
32293;DHT22;43233;48.608;8.838;2023-04-25T04:34:38;5.90;81.00
32293;DHT22;43233;48.608;8.838;2023-04-25T04:37:05;5.90;81.40
32293;DHT22;43233;48.608;8.838;2023-04-25T04:39:32;5.80;81.50
32293;DHT22;43233;48.608;8.838;2023-04-25T04:41:58;5.80;81.60
32293;DHT22;43233;48.608;8.838;2023-04-25T04:44:24;5.80;82.40
32293;DHT22;43233;48.608;8.838;2023-04-25T04:46:50;5.80;82.60
32293;DHT22;43233;48.608;8.838;2023-04-25T04:49:16;5.90;82.80
32293;DHT22;43233;48.608;8.838;2023-04-25T04:51:43;5.90;82.80
32293;DHT22;43233;48.608;8.838;2023-04-25T04:54:12;6.00;82.80
32293;DHT22;43233;48.608;8.838;2023-04-25T04:56:38;6.10;82.80
32293;DHT22;43233;48.608;8.838;2023-04-25T04:59:04;6.20;82.50
32293;DHT22;43233;48.608;8.838;2023-04-25T05:01:30;6.20;82.30
32293;DHT22;43233;48.608;8.838;2023-04-25T05:03:56;6.30;82.10
32293;DHT22;43233;48.608;8.838;2023-04-25T05:06:26;6.30;82.40
32293;DHT22;43233;48.608;8.838;2023-04-25T05:08:52;6.30;82.60
32293;DHT22;43233;48.608;8.838;2023-04-25T05:11:19;6.40;82.70
32293;DHT22;43233;48.608;8.838;2023-04-25T05:13:45;6.40;82.70
32293;DHT22;43233;48.608;8.838;2023-04-25T05:16:11;6.40;82.90
32293;DHT22;43233;48.608;8.838;2023-04-25T05:18:38;6.40;83.10
32293;DHT22;43233;48.608;8.838;2023-04-25T05:21:04;6.50;83.40
32293;DHT22;43233;48.608;8.838;2023-04-25T05:23:31;6.50;83.70
32293;DHT22;43233;48.608;8.838;2023-04-25T05:25:57;6.50;83.60
32293;DHT22;43233;48.608;8.838;2023-04-25T05:28:23;6.60;83.50
32293;DHT22;43233;48.608;8.838;2023-04-25T05:30:49;6.60;83.30
32293;DHT22;43233;48.608;8.838;2023-04-25T05:33:15;6.70;83.40
32293;DHT22;43233;48.608;8.838;2023-04-25T05:35:41;6.70;83.40
32293;DHT22;43233;48.608;8.838;2023-04-25T05:38:06;6.70;83.40
32293;DHT22;43233;48.608;8.838;2023-04-25T05:40:32;6.80;83.40
32293;DHT22;43233;48.608;8.838;2023-04-25T05:42:57;6.80;83.80
32293;DHT22;43233;48.608;8.838;2023-04-25T05:45:23;6.90;83.90
32293;DHT22;43233;48.608;8.838;2023-04-25T05:47:49;6.90;82.00
32293;DHT22;43233;48.608;8.838;2023-04-25T05:50:15;6.80;81.50
32293;DHT22;43233;48.608;8.838;2023-04-25T05:52:40;6.80;81.50
32293;DHT22;43233;48.608;8.838;2023-04-25T05:55:06;6.90;81.70
32293;DHT22;43233;48.608;8.838;2023-04-25T05:57:32;7.00;82.00
32293;DHT22;43233;48.608;8.838;2023-04-25T05:59:58;7.10;82.30
32293;DHT22;43233;48.608;8.838;2023-04-25T06:02:23;7.10;81.50
32293;DHT22;43233;48.608;8.838;2023-04-25T06:04:52;7.20;81.70
32293;DHT22;43233;48.608;8.838;2023-04-25T06:07:18;7.30;82.60
32293;DHT22;43233;48.608;8.838;2023-04-25T06:09:45;7.30;81.50
32293;DHT22;43233;48.608;8.838;2023-04-25T06:12:10;7.30;79.40
32293;DHT22;43233;48.608;8.838;2023-04-25T06:14:36;7.30;78.20
32293;DHT22;43233;48.608;8.838;2023-04-25T06:17:03;7.30;78.80
32293;DHT22;43233;48.608;8.838;2023-04-25T06:19:35;7.30;78.60
32293;DHT22;43233;48.608;8.838;2023-04-25T06:22:01;7.30;77.10
32293;DHT22;43233;48.608;8.838;2023-04-25T06:24:27;7.30;77.00
32293;DHT22;43233;48.608;8.838;2023-04-25T06:26:53;7.40;77.70
32293;DHT22;43233;48.608;8.838;2023-04-25T06:29:19;7.40;78.70
32293;DHT22;43233;48.608;8.838;2023-04-25T06:31:45;7.50;79.40
32293;DHT22;43233;48.608;8.838;2023-04-25T06:34:11;7.50;80.00
32293;DHT22;43233;48.608;8.838;2023-04-25T06:36:36;7.50;80.50
32293;DHT22;43233;48.608;8.838;2023-04-25T06:39:02;7.50;80.90
32293;DHT22;43233;48.608;8.838;2023-04-25T06:41:28;7.50;80.80
32293;DHT22;43233;48.608;8.838;2023-04-25T06:43:54;7.50;80.80
32293;DHT22;43233;48.608;8.838;2023-04-25T06:46:19;7.60;81.10
32293;DHT22;43233;48.608;8.838;2023-04-25T06:48:45;7.60;81.40
32293;DHT22;43233;48.608;8.838;2023-04-25T06:51:11;7.60;81.40
32293;DHT22;43233;48.608;8.838;2023-04-25T06:53:38;7.60;81.50
32293;DHT22;43233;48.608;8.838;2023-04-25T06:56:04;7.60;81.60
32293;DHT22;43233;48.608;8.838;2023-04-25T06:58:30;7.60;81.40
32293;DHT22;43233;48.608;8.838;2023-04-25T07:00:55;7.60;81.30
32293;DHT22;43233;48.608;8.838;2023-04-25T07:03:21;7.60;81.30
32293;DHT22;43233;48.608;8.838;2023-04-25T07:05:47;7.60;80.50
32293;DHT22;43233;48.608;8.838;2023-04-25T07:08:13;7.60;80.60
32293;DHT22;43233;48.608;8.838;2023-04-25T07:10:38;7.60;81.20
32293;DHT22;43233;48.608;8.838;2023-04-25T07:13:04;7.60;81.10
32293;DHT22;43233;48.608;8.838;2023-04-25T07:15:30;7.60;81.30
32293;DHT22;43233;48.608;8.838;2023-04-25T07:17:56;7.60;81.40
32293;DHT22;43233;48.608;8.838;2023-04-25T07:20:21;7.60;81.10
32293;DHT22;43233;48.608;8.838;2023-04-25T07:22:47;7.60;81.30
32293;DHT22;43233;48.608;8.838;2023-04-25T07:25:13;7.60;81.30
32293;DHT22;43233;48.608;8.838;2023-04-25T07:27:38;7.60;82.30
32293;DHT22;43233;48.608;8.838;2023-04-25T07:30:05;7.60;83.20
32293;DHT22;43233;48.608;8.838;2023-04-25T07:32:31;7.60;83.50
32293;DHT22;43233;48.608;8.838;2023-04-25T07:34:57;7.40;82.20
32293;DHT22;43233;48.608;8.838;2023-04-25T07:37:22;7.40;82.20
32293;DHT22;43233;48.608;8.838;2023-04-25T07:39:48;7.40;80.20
32293;DHT22;43233;48.608;8.838;2023-04-25T07:42:14;7.20;77.10
32293;DHT22;43233;48.608;8.838;2023-04-25T07:44:40;7.10;76.00
32293;DHT22;43233;48.608;8.838;2023-04-25T07:47:06;7.00;77.50
32293;DHT22;43233;48.608;8.838;2023-04-25T07:49:33;6.90;80.50
32293;DHT22;43233;48.608;8.838;2023-04-25T07:52:00;6.70;82.20
32293;DHT22;43233;48.608;8.838;2023-04-25T07:54:26;6.70;83.00
32293;DHT22;43233;48.608;8.838;2023-04-25T07:56:52;6.60;83.80
32293;DHT22;43233;48.608;8.838;2023-04-25T07:59:17;6.60;85.10
32293;DHT22;43233;48.608;8.838;2023-04-25T08:01:43;6.60;84.10
32293;DHT22;43233;48.608;8.838;2023-04-25T08:04:09;6.40;80.10
32293;DHT22;43233;48.608;8.838;2023-04-25T08:06:34;6.40;83.10
32293;DHT22;43233;48.608;8.838;2023-04-25T08:09:00;6.50;84.70
32293;DHT22;43233;48.608;8.838;2023-04-25T08:11:25;6.50;84.30
32293;DHT22;43233;48.608;8.838;2023-04-25T08:13:51;6.40;85.20
32293;DHT22;43233;48.608;8.838;2023-04-25T08:16:17;6.40;86.60
32293;DHT22;43233;48.608;8.838;2023-04-25T08:18:42;6.40;86.90
32293;DHT22;43233;48.608;8.838;2023-04-25T08:21:08;6.50;86.60
32293;DHT22;43233;48.608;8.838;2023-04-25T08:23:36;6.20;85.00
32293;DHT22;43233;48.608;8.838;2023-04-25T08:26:02;6.20;84.80
32293;DHT22;43233;48.608;8.838;2023-04-25T08:28:28;6.10;86.00
32293;DHT22;43233;48.608;8.838;2023-04-25T08:30:54;6.00;85.90
32293;DHT22;43233;48.608;8.838;2023-04-25T08:33:19;6.00;85.90
32293;DHT22;43233;48.608;8.838;2023-04-25T08:35:45;6.00;86.10
32293;DHT22;43233;48.608;8.838;2023-04-25T08:38:11;6.00;86.00
32293;DHT22;43233;48.608;8.838;2023-04-25T08:40:38;6.10;83.90
32293;DHT22;43233;48.608;8.838;2023-04-25T08:43:06;6.00;84.70
32293;DHT22;43233;48.608;8.838;2023-04-25T08:45:39;6.00;85.50
32293;DHT22;43233;48.608;8.838;2023-04-25T08:48:12;6.10;85.70
32293;DHT22;43233;48.608;8.838;2023-04-25T08:50:48;6.00;83.40
32293;DHT22;43233;48.608;8.838;2023-04-25T08:53:17;5.90;85.90
32293;DHT22;43233;48.608;8.838;2023-04-25T08:55:45;5.80;87.10
32293;DHT22;43233;48.608;8.838;2023-04-25T08:58:12;5.80;88.30
32293;DHT22;43233;48.608;8.838;2023-04-25T09:00:38;5.80;87.60
32293;DHT22;43233;48.608;8.838;2023-04-25T09:03:05;5.60;85.20
32293;DHT22;43233;48.608;8.838;2023-04-25T09:05:33;5.60;85.90
32293;DHT22;43233;48.608;8.838;2023-04-25T09:07:59;5.60;86.80
32293;DHT22;43233;48.608;8.838;2023-04-25T09:10:26;5.50;85.80
32293;DHT22;43233;48.608;8.838;2023-04-25T09:13:25;5.30;87.30
32293;DHT22;43233;48.608;8.838;2023-04-25T09:15:54;5.20;86.60
32293;DHT22;43233;48.608;8.838;2023-04-25T09:18:33;5.20;86.80
32293;DHT22;43233;48.608;8.838;2023-04-25T09:21:10;5.00;89.00
32293;DHT22;43233;48.608;8.838;2023-04-25T09:23:45;4.90;87.70
32293;DHT22;43233;48.608;8.838;2023-04-25T09:26:18;4.90;89.00
32293;DHT22;43233;48.608;8.838;2023-04-25T09:28:44;4.80;88.20
32293;DHT22;43233;48.608;8.838;2023-04-25T09:31:11;4.80;88.10
32293;DHT22;43233;48.608;8.838;2023-04-25T09:33:37;4.70;88.60
32293;DHT22;43233;48.608;8.838;2023-04-25T09:36:09;4.70;90.00
32293;DHT22;43233;48.608;8.838;2023-04-25T09:38:43;4.60;90.30
32293;DHT22;43233;48.608;8.838;2023-04-25T09:41:09;4.60;91.20
32293;DHT22;43233;48.608;8.838;2023-04-25T09:43:36;4.50;90.50
32293;DHT22;43233;48.608;8.838;2023-04-25T09:46:02;4.40;91.20
32293;DHT22;43233;48.608;8.838;2023-04-25T09:48:28;4.40;92.70
32293;DHT22;43233;48.608;8.838;2023-04-25T09:51:09;4.40;91.60
32293;DHT22;43233;48.608;8.838;2023-04-25T09:53:40;4.40;93.40
32293;DHT22;43233;48.608;8.838;2023-04-25T09:56:07;4.40;92.70
32293;DHT22;43233;48.608;8.838;2023-04-25T09:58:35;4.40;93.40
32293;DHT22;43233;48.608;8.838;2023-04-25T10:01:08;4.50;93.50
32293;DHT22;43233;48.608;8.838;2023-04-25T10:03:36;4.40;90.80
32293;DHT22;43233;48.608;8.838;2023-04-25T10:06:04;4.40;93.70
32293;DHT22;43233;48.608;8.838;2023-04-25T10:08:37;4.50;93.90
32293;DHT22;43233;48.608;8.838;2023-04-25T10:11:07;4.60;93.00
32293;DHT22;43233;48.608;8.838;2023-04-25T10:13:34;4.60;93.40
32293;DHT22;43233;48.608;8.838;2023-04-25T10:16:03;4.60;93.00
32293;DHT22;43233;48.608;8.838;2023-04-25T10:18:30;4.70;92.00
32293;DHT22;43233;48.608;8.838;2023-04-25T10:20:59;4.70;90.60
32293;DHT22;43233;48.608;8.838;2023-04-25T10:23:25;4.70;92.80
32293;DHT22;43233;48.608;8.838;2023-04-25T10:25:52;4.80;93.90
32293;DHT22;43233;48.608;8.838;2023-04-25T10:28:19;5.00;94.50
32293;DHT22;43233;48.608;8.838;2023-04-25T10:33:35;5.20;93.50
32293;DHT22;43233;48.608;8.838;2023-04-25T10:36:14;5.30;93.10
32293;DHT22;43233;48.608;8.838;2023-04-25T10:38:45;5.40;91.40
32293;DHT22;43233;48.608;8.838;2023-04-25T10:41:12;5.50;92.30
32293;DHT22;43233;48.608;8.838;2023-04-25T10:48:50;5.50;89.40
32293;DHT22;43233;48.608;8.838;2023-04-25T10:56:21;5.80;92.10
32293;DHT22;43233;48.608;8.838;2023-04-25T10:58:48;5.90;90.60
32293;DHT22;43233;48.608;8.838;2023-04-25T11:01:15;5.80;88.00
32293;DHT22;43233;48.608;8.838;2023-04-25T11:03:44;5.90;89.60
32293;DHT22;43233;48.608;8.838;2023-04-25T11:06:28;5.90;91.00
32293;DHT22;43233;48.608;8.838;2023-04-25T11:08:55;5.90;90.20
32293;DHT22;43233;48.608;8.838;2023-04-25T11:11:20;6.00;88.90
32293;DHT22;43233;48.608;8.838;2023-04-25T11:13:49;6.00;89.00
32293;DHT22;43233;48.608;8.838;2023-04-25T11:16:16;6.00;90.90
32293;DHT22;43233;48.608;8.838;2023-04-25T11:18:45;6.00;91.20
32293;DHT22;43233;48.608;8.838;2023-04-25T11:21:11;6.20;93.30
32293;DHT22;43233;48.608;8.838;2023-04-25T11:23:37;6.30;93.20
32293;DHT22;43233;48.608;8.838;2023-04-25T11:26:03;6.30;91.20
32293;DHT22;43233;48.608;8.838;2023-04-25T11:28:29;6.30;91.80
32293;DHT22;43233;48.608;8.838;2023-04-25T11:30:56;6.40;90.90
32293;DHT22;43233;48.608;8.838;2023-04-25T11:33:25;6.40;90.70
32293;DHT22;43233;48.608;8.838;2023-04-25T11:35:55;6.50;91.40
32293;DHT22;43233;48.608;8.838;2023-04-25T11:38:22;6.70;91.80
32293;DHT22;43233;48.608;8.838;2023-04-25T11:40:53;6.80;92.40
32293;DHT22;43233;48.608;8.838;2023-04-25T11:43:22;6.80;91.20
32293;DHT22;43233;48.608;8.838;2023-04-25T11:45:49;6.90;93.20
32293;DHT22;43233;48.608;8.838;2023-04-25T11:48:16;6.90;93.00
32293;DHT22;43233;48.608;8.838;2023-04-25T11:50:42;6.80;91.80
32293;DHT22;43233;48.608;8.838;2023-04-25T11:53:08;6.90;91.60
32293;DHT22;43233;48.608;8.838;2023-04-25T11:55:34;6.80;90.80
32293;DHT22;43233;48.608;8.838;2023-04-25T11:58:01;6.90;91.50
32293;DHT22;43233;48.608;8.838;2023-04-25T12:00:28;7.00;90.60
32293;DHT22;43233;48.608;8.838;2023-04-25T12:02:55;7.10;90.80
32293;DHT22;43233;48.608;8.838;2023-04-25T12:05:28;7.20;90.90
32293;DHT22;43233;48.608;8.838;2023-04-25T12:07:54;7.30;90.90
32293;DHT22;43233;48.608;8.838;2023-04-25T12:10:20;7.40;90.90
32293;DHT22;43233;48.608;8.838;2023-04-25T12:12:47;7.40;88.90
32293;DHT22;43233;48.608;8.838;2023-04-25T12:15:32;7.40;86.50
32293;DHT22;43233;48.608;8.838;2023-04-25T12:17:58;7.30;84.00
32293;DHT22;43233;48.608;8.838;2023-04-25T12:20:27;7.30;84.20
32293;DHT22;43233;48.608;8.838;2023-04-25T12:22:52;7.40;83.80
32293;DHT22;43233;48.608;8.838;2023-04-25T12:25:40;7.40;83.00
32293;DHT22;43233;48.608;8.838;2023-04-25T12:28:10;7.50;83.80
32293;DHT22;43233;48.608;8.838;2023-04-25T12:31:00;7.50;83.50
32293;DHT22;43233;48.608;8.838;2023-04-25T12:33:28;7.60;84.00
32293;DHT22;43233;48.608;8.838;2023-04-25T12:35:55;7.70;85.00
32293;DHT22;43233;48.608;8.838;2023-04-25T12:38:26;7.70;84.10
32293;DHT22;43233;48.608;8.838;2023-04-25T12:40:52;7.80;83.10
32293;DHT22;43233;48.608;8.838;2023-04-25T12:43:18;7.80;83.40
32293;DHT22;43233;48.608;8.838;2023-04-25T12:45:46;7.80;82.00
32293;DHT22;43233;48.608;8.838;2023-04-25T12:48:12;7.80;83.70
32293;DHT22;43233;48.608;8.838;2023-04-25T12:50:38;7.80;83.80
32293;DHT22;43233;48.608;8.838;2023-04-25T12:53:04;7.80;82.40
32293;DHT22;43233;48.608;8.838;2023-04-25T12:55:29;7.80;82.90
32293;DHT22;43233;48.608;8.838;2023-04-25T12:57:55;7.80;84.40
32293;DHT22;43233;48.608;8.838;2023-04-25T13:00:20;7.80;83.50
32293;DHT22;43233;48.608;8.838;2023-04-25T13:02:46;7.90;83.40
32293;DHT22;43233;48.608;8.838;2023-04-25T13:05:12;8.00;82.40
32293;DHT22;43233;48.608;8.838;2023-04-25T13:07:38;8.00;82.00
32293;DHT22;43233;48.608;8.838;2023-04-25T13:10:05;8.10;81.50
32293;DHT22;43233;48.608;8.838;2023-04-25T13:12:31;8.10;80.20
32293;DHT22;43233;48.608;8.838;2023-04-25T13:14:57;8.00;80.50
32293;DHT22;43233;48.608;8.838;2023-04-25T13:17:22;8.10;81.10
32293;DHT22;43233;48.608;8.838;2023-04-25T13:19:48;8.20;81.20
32293;DHT22;43233;48.608;8.838;2023-04-25T13:22:14;8.30;81.40
32293;DHT22;43233;48.608;8.838;2023-04-25T13:24:42;8.50;81.70
32293;DHT22;43233;48.608;8.838;2023-04-25T13:27:08;8.60;79.80
32293;DHT22;43233;48.608;8.838;2023-04-25T13:29:34;8.70;78.40
32293;DHT22;43233;48.608;8.838;2023-04-25T13:32:01;8.80;80.50
32293;DHT22;43233;48.608;8.838;2023-04-25T13:34:28;9.10;81.50
32293;DHT22;43233;48.608;8.838;2023-04-25T13:36:53;9.50;83.50
32293;DHT22;43233;48.608;8.838;2023-04-25T13:39:20;10.00;81.60
32293;DHT22;43233;48.608;8.838;2023-04-25T13:41:45;10.50;79.70
32293;DHT22;43233;48.608;8.838;2023-04-25T13:44:11;10.90;75.60
32293;DHT22;43233;48.608;8.838;2023-04-25T13:46:37;11.30;70.70
32293;DHT22;43233;48.608;8.838;2023-04-25T13:49:04;11.20;69.20
32293;DHT22;43233;48.608;8.838;2023-04-25T13:51:29;11.30;67.70
32293;DHT22;43233;48.608;8.838;2023-04-25T13:53:56;11.40;68.10
32293;DHT22;43233;48.608;8.838;2023-04-25T13:56:22;11.50;67.10
32293;DHT22;43233;48.608;8.838;2023-04-25T13:58:49;11.50;64.00
32293;DHT22;43233;48.608;8.838;2023-04-25T14:01:15;10.90;64.40
32293;DHT22;43233;48.608;8.838;2023-04-25T14:03:41;10.60;68.60
32293;DHT22;43233;48.608;8.838;2023-04-25T14:06:07;10.60;69.20
32293;DHT22;43233;48.608;8.838;2023-04-25T14:08:34;10.60;67.00
32293;DHT22;43233;48.608;8.838;2023-04-25T14:11:00;10.20;64.60
32293;DHT22;43233;48.608;8.838;2023-04-25T14:13:26;9.90;64.40
32293;DHT22;43233;48.608;8.838;2023-04-25T14:15:52;9.70;66.10
32293;DHT22;43233;48.608;8.838;2023-04-25T14:18:18;9.60;67.60
32293;DHT22;43233;48.608;8.838;2023-04-25T14:20:45;9.50;69.10
32293;DHT22;43233;48.608;8.838;2023-04-25T14:23:10;9.40;67.00
32293;DHT22;43233;48.608;8.838;2023-04-25T14:25:36;9.40;69.70
32293;DHT22;43233;48.608;8.838;2023-04-25T14:28:02;9.60;71.00
32293;DHT22;43233;48.608;8.838;2023-04-25T14:30:28;9.60;69.80
32293;DHT22;43233;48.608;8.838;2023-04-25T14:32:54;9.60;70.00
32293;DHT22;43233;48.608;8.838;2023-04-25T14:35:19;9.30;71.20
32293;DHT22;43233;48.608;8.838;2023-04-25T14:37:46;9.30;72.80
32293;DHT22;43233;48.608;8.838;2023-04-25T14:40:12;9.00;71.60
32293;DHT22;43233;48.608;8.838;2023-04-25T14:42:39;9.00;70.80
32293;DHT22;43233;48.608;8.838;2023-04-25T14:45:06;9.00;71.40
32293;DHT22;43233;48.608;8.838;2023-04-25T14:47:32;9.10;73.00
32293;DHT22;43233;48.608;8.838;2023-04-25T14:49:58;9.10;72.60
32293;DHT22;43233;48.608;8.838;2023-04-25T14:52:24;9.30;72.60
32293;DHT22;43233;48.608;8.838;2023-04-25T14:54:51;9.60;68.60
32293;DHT22;43233;48.608;8.838;2023-04-25T14:57:17;10.00;69.20
32293;DHT22;43233;48.608;8.838;2023-04-25T14:59:42;10.30;68.70
32293;DHT22;43233;48.608;8.838;2023-04-25T15:02:08;10.70;65.30
32293;DHT22;43233;48.608;8.838;2023-04-25T15:04:34;10.90;63.80
32293;DHT22;43233;48.608;8.838;2023-04-25T15:06:59;11.10;59.00
32293;DHT22;43233;48.608;8.838;2023-04-25T15:09:26;11.10;58.20
32293;DHT22;43233;48.608;8.838;2023-04-25T15:11:51;11.10;55.90
32293;DHT22;43233;48.608;8.838;2023-04-25T15:14:17;11.40;58.60
32293;DHT22;43233;48.608;8.838;2023-04-25T15:16:43;11.40;55.10
32293;DHT22;43233;48.608;8.838;2023-04-25T15:19:09;11.50;56.10
32293;DHT22;43233;48.608;8.838;2023-04-25T15:21:35;11.70;55.70
32293;DHT22;43233;48.608;8.838;2023-04-25T15:24:00;11.70;54.00
32293;DHT22;43233;48.608;8.838;2023-04-25T15:26:27;11.80;53.70
32293;DHT22;43233;48.608;8.838;2023-04-25T15:28:52;11.80;54.50
32293;DHT22;43233;48.608;8.838;2023-04-25T15:31:18;11.80;51.90
32293;DHT22;43233;48.608;8.838;2023-04-25T15:33:44;11.80;51.00
32293;DHT22;43233;48.608;8.838;2023-04-25T15:36:10;11.80;51.80
32293;DHT22;43233;48.608;8.838;2023-04-25T15:38:36;11.70;51.50
32293;DHT22;43233;48.608;8.838;2023-04-25T15:41:01;11.70;52.80
32293;DHT22;43233;48.608;8.838;2023-04-25T15:43:47;11.70;52.30
32293;DHT22;43233;48.608;8.838;2023-04-25T15:46:13;11.70;52.00
32293;DHT22;43233;48.608;8.838;2023-04-25T15:48:39;11.60;51.70
32293;DHT22;43233;48.608;8.838;2023-04-25T15:51:04;11.10;51.10
32293;DHT22;43233;48.608;8.838;2023-04-25T15:53:31;10.60;52.50
32293;DHT22;43233;48.608;8.838;2023-04-25T15:55:56;10.20;54.20